sensor_id;sensor_type;location;lat;lon;timestamp;P1;durP1;ratioP1;P2;durP2;ratioP2
31128;SDS011;17777;48.770;8.944;2023-12-20T00:01:35;0.98;;;0.82;;
31128;SDS011;17777;48.770;8.944;2023-12-20T00:04:01;1.13;;;0.88;;
31128;SDS011;17777;48.770;8.944;2023-12-20T00:06:28;0.95;;;0.82;;
31128;SDS011;17777;48.770;8.944;2023-12-20T00:08:55;1.15;;;1.08;;
31128;SDS011;17777;48.770;8.944;2023-12-20T00:11:20;0.70;;;0.60;;
31128;SDS011;17777;48.770;8.944;2023-12-20T00:13:46;0.88;;;0.80;;
31128;SDS011;17777;48.770;8.944;2023-12-20T00:16:12;0.93;;;0.90;;
31128;SDS011;17777;48.770;8.944;2023-12-20T00:18:38;0.50;;;0.50;;
31128;SDS011;17777;48.770;8.944;2023-12-20T00:21:04;0.60;;;0.60;;
31128;SDS011;17777;48.770;8.944;2023-12-20T00:23:29;0.73;;;0.73;;
31128;SDS011;17777;48.770;8.944;2023-12-20T00:25:55;0.63;;;0.60;;
31128;SDS011;17777;48.770;8.944;2023-12-20T00:28:21;0.57;;;0.57;;
31128;SDS011;17777;48.770;8.944;2023-12-20T00:30:48;0.70;;;0.70;;
31128;SDS011;17777;48.770;8.944;2023-12-20T00:33:13;0.57;;;0.57;;
31128;SDS011;17777;48.770;8.944;2023-12-20T00:35:39;0.63;;;0.57;;
31128;SDS011;17777;48.770;8.944;2023-12-20T00:38:05;0.50;;;0.50;;
31128;SDS011;17777;48.770;8.944;2023-12-20T00:40:32;1.38;;;0.80;;
31128;SDS011;17777;48.770;8.944;2023-12-20T00:42:58;0.60;;;0.55;;
31128;SDS011;17777;48.770;8.944;2023-12-20T00:45:24;1.77;;;0.60;;
31128;SDS011;17777;48.770;8.944;2023-12-20T00:47:50;0.75;;;0.60;;
31128;SDS011;17777;48.770;8.944;2023-12-20T00:50:15;0.90;;;0.60;;
31128;SDS011;17777;48.770;8.944;2023-12-20T00:52:41;1.08;;;0.80;;
31128;SDS011;17777;48.770;8.944;2023-12-20T00:55:07;0.70;;;0.70;;
31128;SDS011;17777;48.770;8.944;2023-12-20T00:57:33;1.05;;;0.80;;
31128;SDS011;17777;48.770;8.944;2023-12-20T00:59:59;2.35;;;0.95;;
31128;SDS011;17777;48.770;8.944;2023-12-20T01:02:25;1.25;;;0.82;;
31128;SDS011;17777;48.770;8.944;2023-12-20T01:04:51;1.52;;;0.82;;
31128;SDS011;17777;48.770;8.944;2023-12-20T01:07:17;1.05;;;0.80;;
31128;SDS011;17777;48.770;8.944;2023-12-20T01:09:43;1.13;;;0.80;;
31128;SDS011;17777;48.770;8.944;2023-12-20T01:12:09;1.30;;;0.82;;
31128;SDS011;17777;48.770;8.944;2023-12-20T01:14:35;1.27;;;1.00;;
31128;SDS011;17777;48.770;8.944;2023-12-20T01:17:01;1.17;;;0.98;;
31128;SDS011;17777;48.770;8.944;2023-12-20T01:19:27;3.35;;;0.80;;
31128;SDS011;17777;48.770;8.944;2023-12-20T01:21:54;0.88;;;0.75;;
31128;SDS011;17777;48.770;8.944;2023-12-20T01:24:20;0.80;;;0.70;;
31128;SDS011;17777;48.770;8.944;2023-12-20T01:26:46;0.98;;;0.70;;
31128;SDS011;17777;48.770;8.944;2023-12-20T01:29:12;0.88;;;0.60;;
31128;SDS011;17777;48.770;8.944;2023-12-20T01:31:39;0.60;;;0.60;;
31128;SDS011;17777;48.770;8.944;2023-12-20T01:34:05;0.60;;;0.60;;
31128;SDS011;17777;48.770;8.944;2023-12-20T01:36:31;1.20;;;0.80;;
31128;SDS011;17777;48.770;8.944;2023-12-20T01:38:57;0.90;;;0.60;;
31128;SDS011;17777;48.770;8.944;2023-12-20T01:41:23;1.45;;;0.60;;
31128;SDS011;17777;48.770;8.944;2023-12-20T01:43:49;0.57;;;0.57;;
31128;SDS011;17777;48.770;8.944;2023-12-20T01:46:15;0.68;;;0.60;;
31128;SDS011;17777;48.770;8.944;2023-12-20T01:48:42;0.50;;;0.50;;
31128;SDS011;17777;48.770;8.944;2023-12-20T01:51:08;0.80;;;0.60;;
31128;SDS011;17777;48.770;8.944;2023-12-20T01:53:35;0.80;;;0.52;;
31128;SDS011;17777;48.770;8.944;2023-12-20T01:56:01;0.70;;;0.70;;
31128;SDS011;17777;48.770;8.944;2023-12-20T01:58:27;0.95;;;0.80;;
31128;SDS011;17777;48.770;8.944;2023-12-20T02:00:54;0.90;;;0.52;;
31128;SDS011;17777;48.770;8.944;2023-12-20T02:03:20;2.85;;;0.60;;
31128;SDS011;17777;48.770;8.944;2023-12-20T02:05:47;0.98;;;0.75;;
31128;SDS011;17777;48.770;8.944;2023-12-20T02:08:13;1.58;;;0.50;;
31128;SDS011;17777;48.770;8.944;2023-12-20T02:10:39;0.77;;;0.60;;
31128;SDS011;17777;48.770;8.944;2023-12-20T02:13:06;0.60;;;0.50;;
31128;SDS011;17777;48.770;8.944;2023-12-20T02:15:31;1.17;;;0.68;;
31128;SDS011;17777;48.770;8.944;2023-12-20T02:17:57;0.60;;;0.57;;
31128;SDS011;17777;48.770;8.944;2023-12-20T02:20:24;0.68;;;0.47;;
31128;SDS011;17777;48.770;8.944;2023-12-20T02:22:49;0.20;;;0.20;;
31128;SDS011;17777;48.770;8.944;2023-12-20T02:25:15;0.30;;;0.30;;
31128;SDS011;17777;48.770;8.944;2023-12-20T02:27:41;0.95;;;0.30;;
31128;SDS011;17777;48.770;8.944;2023-12-20T02:30:07;0.20;;;0.20;;
31128;SDS011;17777;48.770;8.944;2023-12-20T02:32:35;0.20;;;0.20;;
31128;SDS011;17777;48.770;8.944;2023-12-20T02:35:01;0.20;;;0.20;;
31128;SDS011;17777;48.770;8.944;2023-12-20T02:37:27;0.20;;;0.20;;
31128;SDS011;17777;48.770;8.944;2023-12-20T02:39:52;0.20;;;0.20;;
31128;SDS011;17777;48.770;8.944;2023-12-20T02:42:18;0.22;;;0.20;;
31128;SDS011;17777;48.770;8.944;2023-12-20T02:44:44;0.43;;;0.30;;
31128;SDS011;17777;48.770;8.944;2023-12-20T02:47:10;0.82;;;0.40;;
31128;SDS011;17777;48.770;8.944;2023-12-20T02:49:35;0.30;;;0.20;;
31128;SDS011;17777;48.770;8.944;2023-12-20T02:52:01;0.45;;;0.22;;
31128;SDS011;17777;48.770;8.944;2023-12-20T02:54:27;0.40;;;0.40;;
31128;SDS011;17777;48.770;8.944;2023-12-20T02:56:54;1.05;;;0.40;;
31128;SDS011;17777;48.770;8.944;2023-12-20T02:59:20;0.38;;;0.30;;
31128;SDS011;17777;48.770;8.944;2023-12-20T03:01:46;0.30;;;0.30;;
31128;SDS011;17777;48.770;8.944;2023-12-20T03:04:12;0.47;;;0.25;;
31128;SDS011;17777;48.770;8.944;2023-12-20T03:06:38;0.35;;;0.30;;
31128;SDS011;17777;48.770;8.944;2023-12-20T03:09:04;0.30;;;0.30;;
31128;SDS011;17777;48.770;8.944;2023-12-20T03:11:30;0.40;;;0.30;;
31128;SDS011;17777;48.770;8.944;2023-12-20T03:13:56;0.28;;;0.28;;
31128;SDS011;17777;48.770;8.944;2023-12-20T03:16:22;0.40;;;0.22;;
31128;SDS011;17777;48.770;8.944;2023-12-20T03:18:48;0.30;;;0.28;;
31128;SDS011;17777;48.770;8.944;2023-12-20T03:21:14;0.20;;;0.20;;
31128;SDS011;17777;48.770;8.944;2023-12-20T03:23:40;0.60;;;0.30;;
31128;SDS011;17777;48.770;8.944;2023-12-20T03:26:07;0.43;;;0.30;;
31128;SDS011;17777;48.770;8.944;2023-12-20T03:28:33;1.30;;;0.25;;
31128;SDS011;17777;48.770;8.944;2023-12-20T03:30:59;0.95;;;0.40;;
31128;SDS011;17777;48.770;8.944;2023-12-20T03:33:25;0.52;;;0.30;;
31128;SDS011;17777;48.770;8.944;2023-12-20T03:35:51;0.43;;;0.20;;
31128;SDS011;17777;48.770;8.944;2023-12-20T03:38:17;0.80;;;0.40;;
31128;SDS011;17777;48.770;8.944;2023-12-20T03:40:43;0.20;;;0.20;;
31128;SDS011;17777;48.770;8.944;2023-12-20T03:43:08;2.60;;;0.50;;
31128;SDS011;17777;48.770;8.944;2023-12-20T03:45:34;1.77;;;0.63;;
31128;SDS011;17777;48.770;8.944;2023-12-20T03:48:00;1.52;;;0.50;;
31128;SDS011;17777;48.770;8.944;2023-12-20T03:50:26;1.58;;;0.52;;
31128;SDS011;17777;48.770;8.944;2023-12-20T03:52:52;0.30;;;0.30;;
31128;SDS011;17777;48.770;8.944;2023-12-20T03:55:18;0.35;;;0.30;;
31128;SDS011;17777;48.770;8.944;2023-12-20T03:57:44;0.30;;;0.30;;
31128;SDS011;17777;48.770;8.944;2023-12-20T04:00:10;0.30;;;0.30;;
31128;SDS011;17777;48.770;8.944;2023-12-20T04:02:40;0.30;;;0.20;;
31128;SDS011;17777;48.770;8.944;2023-12-20T04:05:06;0.30;;;0.30;;
31128;SDS011;17777;48.770;8.944;2023-12-20T04:07:34;0.20;;;0.20;;
31128;SDS011;17777;48.770;8.944;2023-12-20T04:10:01;0.40;;;0.30;;
31128;SDS011;17777;48.770;8.944;2023-12-20T04:12:31;0.30;;;0.30;;
31128;SDS011;17777;48.770;8.944;2023-12-20T04:14:57;0.95;;;0.30;;
31128;SDS011;17777;48.770;8.944;2023-12-20T04:17:23;0.82;;;0.52;;
31128;SDS011;17777;48.770;8.944;2023-12-20T04:19:49;0.40;;;0.40;;
31128;SDS011;17777;48.770;8.944;2023-12-20T04:22:16;1.27;;;0.50;;
31128;SDS011;17777;48.770;8.944;2023-12-20T04:24:43;0.77;;;0.57;;
31128;SDS011;17777;48.770;8.944;2023-12-20T04:27:09;0.65;;;0.50;;
31128;SDS011;17777;48.770;8.944;2023-12-20T04:29:36;1.30;;;0.43;;
31128;SDS011;17777;48.770;8.944;2023-12-20T04:32:02;0.40;;;0.40;;
31128;SDS011;17777;48.770;8.944;2023-12-20T04:34:28;0.40;;;0.38;;
31128;SDS011;17777;48.770;8.944;2023-12-20T04:36:54;0.63;;;0.30;;
31128;SDS011;17777;48.770;8.944;2023-12-20T04:39:20;0.30;;;0.20;;
31128;SDS011;17777;48.770;8.944;2023-12-20T04:41:45;0.20;;;0.20;;
31128;SDS011;17777;48.770;8.944;2023-12-20T04:44:13;0.60;;;0.40;;
31128;SDS011;17777;48.770;8.944;2023-12-20T04:46:39;0.43;;;0.40;;
31128;SDS011;17777;48.770;8.944;2023-12-20T04:49:05;0.70;;;0.30;;
31128;SDS011;17777;48.770;8.944;2023-12-20T04:51:34;2.13;;;0.30;;
31128;SDS011;17777;48.770;8.944;2023-12-20T04:54:00;0.20;;;0.20;;
31128;SDS011;17777;48.770;8.944;2023-12-20T04:56:26;0.60;;;0.40;;
31128;SDS011;17777;48.770;8.944;2023-12-20T04:58:52;0.40;;;0.40;;
31128;SDS011;17777;48.770;8.944;2023-12-20T05:01:18;0.45;;;0.40;;
31128;SDS011;17777;48.770;8.944;2023-12-20T05:03:43;0.57;;;0.30;;
31128;SDS011;17777;48.770;8.944;2023-12-20T05:06:09;0.30;;;0.30;;
31128;SDS011;17777;48.770;8.944;2023-12-20T05:08:36;0.30;;;0.30;;
31128;SDS011;17777;48.770;8.944;2023-12-20T05:11:02;0.30;;;0.30;;
31128;SDS011;17777;48.770;8.944;2023-12-20T05:13:28;1.25;;;0.75;;
31128;SDS011;17777;48.770;8.944;2023-12-20T05:15:54;1.33;;;0.70;;
31128;SDS011;17777;48.770;8.944;2023-12-20T05:18:20;1.38;;;0.80;;
31128;SDS011;17777;48.770;8.944;2023-12-20T05:20:46;0.68;;;0.57;;
31128;SDS011;17777;48.770;8.944;2023-12-20T05:23:12;0.30;;;0.30;;
31128;SDS011;17777;48.770;8.944;2023-12-20T05:25:39;0.70;;;0.30;;
31128;SDS011;17777;48.770;8.944;2023-12-20T05:28:04;0.30;;;0.30;;
31128;SDS011;17777;48.770;8.944;2023-12-20T05:30:31;0.30;;;0.30;;
31128;SDS011;17777;48.770;8.944;2023-12-20T05:32:57;0.20;;;0.20;;
31128;SDS011;17777;48.770;8.944;2023-12-20T05:35:23;0.30;;;0.20;;
31128;SDS011;17777;48.770;8.944;2023-12-20T05:37:49;0.20;;;0.20;;
31128;SDS011;17777;48.770;8.944;2023-12-20T05:40:15;0.25;;;0.25;;
31128;SDS011;17777;48.770;8.944;2023-12-20T05:42:41;0.30;;;0.30;;
31128;SDS011;17777;48.770;8.944;2023-12-20T05:45:07;0.50;;;0.40;;
31128;SDS011;17777;48.770;8.944;2023-12-20T05:47:34;0.30;;;0.30;;
31128;SDS011;17777;48.770;8.944;2023-12-20T05:49:59;0.40;;;0.40;;
31128;SDS011;17777;48.770;8.944;2023-12-20T05:52:25;0.30;;;0.30;;
31128;SDS011;17777;48.770;8.944;2023-12-20T05:54:51;0.38;;;0.30;;
31128;SDS011;17777;48.770;8.944;2023-12-20T05:57:17;0.35;;;0.30;;
31128;SDS011;17777;48.770;8.944;2023-12-20T05:59:43;0.30;;;0.30;;
31128;SDS011;17777;48.770;8.944;2023-12-20T06:02:08;0.50;;;0.40;;
31128;SDS011;17777;48.770;8.944;2023-12-20T06:04:34;0.63;;;0.43;;
31128;SDS011;17777;48.770;8.944;2023-12-20T06:07:00;0.75;;;0.50;;
31128;SDS011;17777;48.770;8.944;2023-12-20T06:09:29;0.43;;;0.43;;
31128;SDS011;17777;48.770;8.944;2023-12-20T06:11:55;0.60;;;0.50;;
31128;SDS011;17777;48.770;8.944;2023-12-20T06:14:20;0.50;;;0.50;;
31128;SDS011;17777;48.770;8.944;2023-12-20T06:16:46;0.73;;;0.63;;
31128;SDS011;17777;48.770;8.944;2023-12-20T06:19:12;0.95;;;0.80;;
31128;SDS011;17777;48.770;8.944;2023-12-20T06:21:39;1.27;;;1.00;;
31128;SDS011;17777;48.770;8.944;2023-12-20T06:24:04;0.98;;;0.85;;
31128;SDS011;17777;48.770;8.944;2023-12-20T06:26:30;0.98;;;0.73;;
31128;SDS011;17777;48.770;8.944;2023-12-20T06:28:56;0.50;;;0.50;;
31128;SDS011;17777;48.770;8.944;2023-12-20T06:31:22;0.82;;;0.65;;
31128;SDS011;17777;48.770;8.944;2023-12-20T06:33:48;0.85;;;0.73;;
31128;SDS011;17777;48.770;8.944;2023-12-20T06:36:22;0.65;;;0.60;;
31128;SDS011;17777;48.770;8.944;2023-12-20T06:38:57;0.65;;;0.60;;
31128;SDS011;17777;48.770;8.944;2023-12-20T06:41:23;0.75;;;0.75;;
31128;SDS011;17777;48.770;8.944;2023-12-20T06:43:49;1.15;;;0.65;;
31128;SDS011;17777;48.770;8.944;2023-12-20T06:46:16;1.48;;;0.70;;
31128;SDS011;17777;48.770;8.944;2023-12-20T06:48:42;0.65;;;0.60;;
31128;SDS011;17777;48.770;8.944;2023-12-20T06:51:12;0.52;;;0.52;;
31128;SDS011;17777;48.770;8.944;2023-12-20T06:53:40;0.50;;;0.50;;
31128;SDS011;17777;48.770;8.944;2023-12-20T06:56:06;0.60;;;0.57;;
31128;SDS011;17777;48.770;8.944;2023-12-20T06:58:32;0.50;;;0.50;;
31128;SDS011;17777;48.770;8.944;2023-12-20T07:00:58;0.50;;;0.50;;
31128;SDS011;17777;48.770;8.944;2023-12-20T07:03:24;0.40;;;0.35;;
31128;SDS011;17777;48.770;8.944;2023-12-20T07:05:49;0.35;;;0.35;;
31128;SDS011;17777;48.770;8.944;2023-12-20T07:08:15;0.65;;;0.65;;
31128;SDS011;17777;48.770;8.944;2023-12-20T07:10:41;0.70;;;0.70;;
31128;SDS011;17777;48.770;8.944;2023-12-20T07:13:07;0.57;;;0.57;;
31128;SDS011;17777;48.770;8.944;2023-12-20T07:15:33;0.73;;;0.60;;
31128;SDS011;17777;48.770;8.944;2023-12-20T07:17:58;1.25;;;0.60;;
31128;SDS011;17777;48.770;8.944;2023-12-20T07:20:25;0.90;;;0.50;;
31128;SDS011;17777;48.770;8.944;2023-12-20T07:22:51;0.82;;;0.60;;
31128;SDS011;17777;48.770;8.944;2023-12-20T07:25:17;0.70;;;0.65;;
31128;SDS011;17777;48.770;8.944;2023-12-20T07:27:43;0.85;;;0.80;;
31128;SDS011;17777;48.770;8.944;2023-12-20T07:30:09;1.95;;;0.90;;
31128;SDS011;17777;48.770;8.944;2023-12-20T07:32:35;0.70;;;0.70;;
31128;SDS011;17777;48.770;8.944;2023-12-20T07:35:01;1.88;;;1.00;;
31128;SDS011;17777;48.770;8.944;2023-12-20T07:37:28;1.00;;;0.90;;
31128;SDS011;17777;48.770;8.944;2023-12-20T07:39:54;0.80;;;0.80;;
31128;SDS011;17777;48.770;8.944;2023-12-20T07:42:19;1.60;;;1.00;;
31128;SDS011;17777;48.770;8.944;2023-12-20T07:44:47;1.77;;;0.90;;
31128;SDS011;17777;48.770;8.944;2023-12-20T07:47:12;1.88;;;1.20;;
31128;SDS011;17777;48.770;8.944;2023-12-20T07:49:42;1.65;;;1.10;;
31128;SDS011;17777;48.770;8.944;2023-12-20T07:52:07;2.22;;;1.33;;
31128;SDS011;17777;48.770;8.944;2023-12-20T07:54:34;0.93;;;0.93;;
31128;SDS011;17777;48.770;8.944;2023-12-20T07:57:00;1.27;;;1.17;;
31128;SDS011;17777;48.770;8.944;2023-12-20T07:59:25;1.95;;;1.10;;
31128;SDS011;17777;48.770;8.944;2023-12-20T08:01:51;1.98;;;1.23;;
31128;SDS011;17777;48.770;8.944;2023-12-20T08:04:17;1.08;;;0.95;;
31128;SDS011;17777;48.770;8.944;2023-12-20T08:06:43;1.33;;;1.10;;
31128;SDS011;17777;48.770;8.944;2023-12-20T08:09:09;1.40;;;0.90;;
31128;SDS011;17777;48.770;8.944;2023-12-20T08:11:35;1.27;;;1.17;;
31128;SDS011;17777;48.770;8.944;2023-12-20T08:14:01;1.85;;;1.20;;
31128;SDS011;17777;48.770;8.944;2023-12-20T08:16:27;1.23;;;1.02;;
31128;SDS011;17777;48.770;8.944;2023-12-20T08:18:52;0.93;;;0.90;;
31128;SDS011;17777;48.770;8.944;2023-12-20T08:21:18;0.90;;;0.90;;
31128;SDS011;17777;48.770;8.944;2023-12-20T08:23:47;0.75;;;0.70;;
31128;SDS011;17777;48.770;8.944;2023-12-20T08:26:13;2.13;;;1.10;;
31128;SDS011;17777;48.770;8.944;2023-12-20T08:28:38;1.52;;;1.10;;
31128;SDS011;17777;48.770;8.944;2023-12-20T08:31:04;1.15;;;0.82;;
31128;SDS011;17777;48.770;8.944;2023-12-20T08:33:30;0.75;;;0.75;;
31128;SDS011;17777;48.770;8.944;2023-12-20T08:35:56;0.90;;;0.90;;
31128;SDS011;17777;48.770;8.944;2023-12-20T08:38:22;2.35;;;0.90;;
31128;SDS011;17777;48.770;8.944;2023-12-20T08:40:48;2.10;;;1.00;;
31128;SDS011;17777;48.770;8.944;2023-12-20T08:43:14;4.95;;;0.98;;
31128;SDS011;17777;48.770;8.944;2023-12-20T08:45:39;2.30;;;0.90;;
31128;SDS011;17777;48.770;8.944;2023-12-20T08:48:05;1.95;;;1.25;;
31128;SDS011;17777;48.770;8.944;2023-12-20T08:50:32;1.75;;;0.90;;
31128;SDS011;17777;48.770;8.944;2023-12-20T08:52:58;2.17;;;1.33;;
31128;SDS011;17777;48.770;8.944;2023-12-20T08:55:24;1.60;;;1.02;;
31128;SDS011;17777;48.770;8.944;2023-12-20T08:57:51;4.07;;;1.58;;
31128;SDS011;17777;48.770;8.944;2023-12-20T09:00:17;2.47;;;1.38;;
31128;SDS011;17777;48.770;8.944;2023-12-20T09:02:45;3.15;;;1.55;;
31128;SDS011;17777;48.770;8.944;2023-12-20T09:05:11;1.92;;;1.17;;
31128;SDS011;17777;48.770;8.944;2023-12-20T09:07:37;3.80;;;1.92;;
31128;SDS011;17777;48.770;8.944;2023-12-20T09:10:03;2.65;;;1.23;;
31128;SDS011;17777;48.770;8.944;2023-12-20T09:12:29;2.65;;;1.02;;
31128;SDS011;17777;48.770;8.944;2023-12-20T09:14:55;1.73;;;0.93;;
31128;SDS011;17777;48.770;8.944;2023-12-20T09:17:21;4.05;;;2.08;;
31128;SDS011;17777;48.770;8.944;2023-12-20T09:19:48;7.72;;;1.42;;
31128;SDS011;17777;48.770;8.944;2023-12-20T09:22:14;2.28;;;1.10;;
31128;SDS011;17777;48.770;8.944;2023-12-20T09:24:39;2.45;;;0.95;;
31128;SDS011;17777;48.770;8.944;2023-12-20T09:27:05;1.88;;;1.10;;
31128;SDS011;17777;48.770;8.944;2023-12-20T09:29:31;2.90;;;1.42;;
31128;SDS011;17777;48.770;8.944;2023-12-20T09:31:57;6.00;;;1.40;;
31128;SDS011;17777;48.770;8.944;2023-12-20T09:34:23;1.70;;;0.98;;
31128;SDS011;17777;48.770;8.944;2023-12-20T09:36:50;5.10;;;1.33;;
31128;SDS011;17777;48.770;8.944;2023-12-20T09:39:17;2.53;;;1.05;;
31128;SDS011;17777;48.770;8.944;2023-12-20T09:41:45;2.72;;;1.00;;
31128;SDS011;17777;48.770;8.944;2023-12-20T09:44:17;3.20;;;1.25;;
31128;SDS011;17777;48.770;8.944;2023-12-20T09:46:44;2.10;;;1.05;;
31128;SDS011;17777;48.770;8.944;2023-12-20T09:49:11;3.75;;;1.17;;
31128;SDS011;17777;48.770;8.944;2023-12-20T09:51:38;4.80;;;2.00;;
31128;SDS011;17777;48.770;8.944;2023-12-20T09:54:06;5.45;;;1.90;;
31128;SDS011;17777;48.770;8.944;2023-12-20T09:56:31;3.00;;;1.83;;
31128;SDS011;17777;48.770;8.944;2023-12-20T09:58:59;4.82;;;1.45;;
31128;SDS011;17777;48.770;8.944;2023-12-20T10:01:25;1.60;;;1.00;;
31128;SDS011;17777;48.770;8.944;2023-12-20T10:03:52;3.35;;;1.00;;
31128;SDS011;17777;48.770;8.944;2023-12-20T10:06:20;1.85;;;0.82;;
31128;SDS011;17777;48.770;8.944;2023-12-20T10:08:47;4.63;;;1.30;;
31128;SDS011;17777;48.770;8.944;2023-12-20T10:11:13;2.25;;;1.02;;
31128;SDS011;17777;48.770;8.944;2023-12-20T10:13:40;2.10;;;0.90;;
31128;SDS011;17777;48.770;8.944;2023-12-20T10:16:06;2.90;;;0.90;;
31128;SDS011;17777;48.770;8.944;2023-12-20T10:18:32;1.23;;;0.93;;
31128;SDS011;17777;48.770;8.944;2023-12-20T10:21:00;2.45;;;1.00;;
31128;SDS011;17777;48.770;8.944;2023-12-20T10:23:26;3.35;;;1.20;;
31128;SDS011;17777;48.770;8.944;2023-12-20T10:26:01;2.45;;;0.75;;
31128;SDS011;17777;48.770;8.944;2023-12-20T10:28:28;5.88;;;1.00;;
31128;SDS011;17777;48.770;8.944;2023-12-20T10:30:59;3.35;;;0.88;;
31128;SDS011;17777;48.770;8.944;2023-12-20T10:33:28;5.43;;;0.90;;
31128;SDS011;17777;48.770;8.944;2023-12-20T10:35:57;2.95;;;1.02;;
31128;SDS011;17777;48.770;8.944;2023-12-20T10:38:23;1.48;;;0.68;;
31128;SDS011;17777;48.770;8.944;2023-12-20T10:40:49;2.47;;;0.85;;
31128;SDS011;17777;48.770;8.944;2023-12-20T10:43:24;4.53;;;1.17;;
31128;SDS011;17777;48.770;8.944;2023-12-20T10:45:51;4.45;;;0.93;;
31128;SDS011;17777;48.770;8.944;2023-12-20T10:48:17;3.47;;;1.10;;
31128;SDS011;17777;48.770;8.944;2023-12-20T10:50:43;3.45;;;0.90;;
31128;SDS011;17777;48.770;8.944;2023-12-20T10:53:10;2.80;;;1.45;;
31128;SDS011;17777;48.770;8.944;2023-12-20T10:55:38;8.18;;;1.35;;
31128;SDS011;17777;48.770;8.944;2023-12-20T10:58:07;1.30;;;0.70;;
31128;SDS011;17777;48.770;8.944;2023-12-20T11:00:35;2.63;;;0.90;;
31128;SDS011;17777;48.770;8.944;2023-12-20T11:03:08;5.35;;;0.90;;
31128;SDS011;17777;48.770;8.944;2023-12-20T11:05:38;4.47;;;1.25;;
31128;SDS011;17777;48.770;8.944;2023-12-20T11:11:06;2.53;;;1.13;;
31128;SDS011;17777;48.770;8.944;2023-12-20T11:16:40;3.58;;;1.05;;
31128;SDS011;17777;48.770;8.944;2023-12-20T11:19:07;3.17;;;0.82;;
31128;SDS011;17777;48.770;8.944;2023-12-20T11:21:33;4.80;;;1.38;;
31128;SDS011;17777;48.770;8.944;2023-12-20T11:23:59;3.63;;;1.05;;
31128;SDS011;17777;48.770;8.944;2023-12-20T11:26:27;1.33;;;0.70;;
31128;SDS011;17777;48.770;8.944;2023-12-20T11:28:54;5.40;;;1.20;;
31128;SDS011;17777;48.770;8.944;2023-12-20T11:32:00;3.08;;;0.80;;
31128;SDS011;17777;48.770;8.944;2023-12-20T11:34:45;1.60;;;0.80;;
31128;SDS011;17777;48.770;8.944;2023-12-20T11:37:11;4.47;;;1.00;;
31128;SDS011;17777;48.770;8.944;2023-12-20T11:39:39;2.67;;;0.90;;
31128;SDS011;17777;48.770;8.944;2023-12-20T11:42:05;4.05;;;0.95;;
31128;SDS011;17777;48.770;8.944;2023-12-20T11:44:33;2.85;;;1.00;;
31128;SDS011;17777;48.770;8.944;2023-12-20T11:46:59;4.90;;;1.10;;
31128;SDS011;17777;48.770;8.944;2023-12-20T11:49:25;2.83;;;1.45;;
31128;SDS011;17777;48.770;8.944;2023-12-20T11:51:51;3.20;;;1.08;;
31128;SDS011;17777;48.770;8.944;2023-12-20T11:54:17;1.48;;;0.93;;
31128;SDS011;17777;48.770;8.944;2023-12-20T11:56:43;2.25;;;0.88;;
31128;SDS011;17777;48.770;8.944;2023-12-20T11:59:09;3.20;;;1.20;;
31128;SDS011;17777;48.770;8.944;2023-12-20T12:01:36;2.92;;;1.00;;
31128;SDS011;17777;48.770;8.944;2023-12-20T12:04:03;1.30;;;0.77;;
31128;SDS011;17777;48.770;8.944;2023-12-20T12:06:29;3.33;;;1.02;;
31128;SDS011;17777;48.770;8.944;2023-12-20T12:08:55;4.03;;;1.33;;
31128;SDS011;17777;48.770;8.944;2023-12-20T12:11:21;4.65;;;1.25;;
31128;SDS011;17777;48.770;8.944;2023-12-20T12:13:48;1.40;;;0.63;;
31128;SDS011;17777;48.770;8.944;2023-12-20T12:16:17;2.25;;;0.80;;
31128;SDS011;17777;48.770;8.944;2023-12-20T12:18:45;2.70;;;1.13;;
31128;SDS011;17777;48.770;8.944;2023-12-20T12:21:18;5.22;;;0.90;;
31128;SDS011;17777;48.770;8.944;2023-12-20T12:23:45;1.55;;;0.70;;
31128;SDS011;17777;48.770;8.944;2023-12-20T12:26:11;2.55;;;0.80;;
31128;SDS011;17777;48.770;8.944;2023-12-20T12:28:39;2.58;;;0.75;;
31128;SDS011;17777;48.770;8.944;2023-12-20T12:31:06;2.05;;;0.70;;
31128;SDS011;17777;48.770;8.944;2023-12-20T12:33:33;3.33;;;0.95;;
31128;SDS011;17777;48.770;8.944;2023-12-20T12:36:02;2.75;;;0.88;;
31128;SDS011;17777;48.770;8.944;2023-12-20T12:38:32;3.67;;;1.27;;
31128;SDS011;17777;48.770;8.944;2023-12-20T12:40:58;2.58;;;0.82;;
31128;SDS011;17777;48.770;8.944;2023-12-20T12:43:25;1.85;;;0.90;;
31128;SDS011;17777;48.770;8.944;2023-12-20T12:45:51;4.68;;;1.00;;
31128;SDS011;17777;48.770;8.944;2023-12-20T12:48:18;2.20;;;0.93;;
31128;SDS011;17777;48.770;8.944;2023-12-20T12:50:45;2.85;;;1.08;;
31128;SDS011;17777;48.770;8.944;2023-12-20T12:53:11;5.63;;;0.88;;
31128;SDS011;17777;48.770;8.944;2023-12-20T12:55:37;3.17;;;0.90;;
31128;SDS011;17777;48.770;8.944;2023-12-20T12:58:03;3.38;;;1.48;;
31128;SDS011;17777;48.770;8.944;2023-12-20T13:00:29;2.42;;;0.90;;
31128;SDS011;17777;48.770;8.944;2023-12-20T13:02:55;5.13;;;1.30;;
31128;SDS011;17777;48.770;8.944;2023-12-20T13:05:21;3.80;;;1.00;;
31128;SDS011;17777;48.770;8.944;2023-12-20T13:07:46;3.00;;;0.93;;
31128;SDS011;17777;48.770;8.944;2023-12-20T13:10:13;2.20;;;0.93;;
31128;SDS011;17777;48.770;8.944;2023-12-20T13:12:41;1.10;;;0.70;;
31128;SDS011;17777;48.770;8.944;2023-12-20T13:15:08;3.33;;;0.82;;
31128;SDS011;17777;48.770;8.944;2023-12-20T13:17:34;3.92;;;0.88;;
31128;SDS011;17777;48.770;8.944;2023-12-20T13:20:00;2.22;;;0.77;;
31128;SDS011;17777;48.770;8.944;2023-12-20T13:22:25;2.75;;;0.82;;
31128;SDS011;17777;48.770;8.944;2023-12-20T13:24:51;2.53;;;0.65;;
31128;SDS011;17777;48.770;8.944;2023-12-20T13:27:17;4.93;;;0.98;;
31128;SDS011;17777;48.770;8.944;2023-12-20T13:29:43;2.20;;;0.77;;
31128;SDS011;17777;48.770;8.944;2023-12-20T13:32:09;2.88;;;0.90;;
31128;SDS011;17777;48.770;8.944;2023-12-20T13:34:34;2.33;;;1.00;;
31128;SDS011;17777;48.770;8.944;2023-12-20T13:37:00;2.97;;;0.80;;
31128;SDS011;17777;48.770;8.944;2023-12-20T13:39:26;1.55;;;0.75;;
31128;SDS011;17777;48.770;8.944;2023-12-20T13:41:52;2.60;;;0.82;;
31128;SDS011;17777;48.770;8.944;2023-12-20T13:44:18;2.20;;;0.70;;
31128;SDS011;17777;48.770;8.944;2023-12-20T13:46:44;2.60;;;0.98;;
31128;SDS011;17777;48.770;8.944;2023-12-20T13:49:11;5.45;;;1.10;;
31128;SDS011;17777;48.770;8.944;2023-12-20T13:51:37;3.03;;;0.80;;
31128;SDS011;17777;48.770;8.944;2023-12-20T13:54:03;3.65;;;0.90;;
31128;SDS011;17777;48.770;8.944;2023-12-20T13:56:29;2.30;;;0.88;;
31128;SDS011;17777;48.770;8.944;2023-12-20T13:58:55;2.95;;;0.95;;
31128;SDS011;17777;48.770;8.944;2023-12-20T14:01:21;4.93;;;0.98;;
31128;SDS011;17777;48.770;8.944;2023-12-20T14:03:49;2.28;;;0.75;;
31128;SDS011;17777;48.770;8.944;2023-12-20T14:06:15;1.77;;;0.85;;
31128;SDS011;17777;48.770;8.944;2023-12-20T14:08:41;0.95;;;0.70;;
31128;SDS011;17777;48.770;8.944;2023-12-20T14:11:07;2.60;;;0.63;;
31128;SDS011;17777;48.770;8.944;2023-12-20T14:13:33;3.92;;;0.98;;
31128;SDS011;17777;48.770;8.944;2023-12-20T14:15:59;3.00;;;1.05;;
31128;SDS011;17777;48.770;8.944;2023-12-20T14:18:26;2.25;;;1.13;;
31128;SDS011;17777;48.770;8.944;2023-12-20T14:20:51;3.97;;;0.95;;
31128;SDS011;17777;48.770;8.944;2023-12-20T14:23:19;2.67;;;0.98;;
31128;SDS011;17777;48.770;8.944;2023-12-20T14:25:44;1.67;;;0.73;;
31128;SDS011;17777;48.770;8.944;2023-12-20T14:28:10;1.83;;;0.70;;
31128;SDS011;17777;48.770;8.944;2023-12-20T14:30:39;4.00;;;1.08;;
31128;SDS011;17777;48.770;8.944;2023-12-20T14:33:05;3.65;;;0.90;;
31128;SDS011;17777;48.770;8.944;2023-12-20T14:35:31;3.40;;;0.95;;
31128;SDS011;17777;48.770;8.944;2023-12-20T14:37:57;3.92;;;0.90;;
31128;SDS011;17777;48.770;8.944;2023-12-20T14:40:23;4.63;;;0.90;;
31128;SDS011;17777;48.770;8.944;2023-12-20T14:42:49;3.85;;;1.00;;
31128;SDS011;17777;48.770;8.944;2023-12-20T14:45:16;3.13;;;0.88;;
31128;SDS011;17777;48.770;8.944;2023-12-20T14:47:43;3.28;;;1.00;;
31128;SDS011;17777;48.770;8.944;2023-12-20T14:50:09;3.33;;;0.90;;